Time;durP1;ratioP1;P1;durP2;ratioP2;P2;SDS_P1;SDS_P2;PMS_P1;PMS_P2;Temp;Humidity;BMP_temperature;BMP_pressure;BME280_temperature;BME280_humidity;BME280_pressure;Samples;Min_cycle;Max_cycle;Signal;HPM_P1;HPM_P2
2023/03/03 00:01:19;;;;;;;;;;;1.20;99.90;;;;;;5068584;28;19956;-68
2023/03/03 00:03:46;;;;;;;;;;;1.20;99.90;;;;;;5063686;28;19928;-67
2023/03/03 00:06:13;;;;;;;;;;;1.10;99.90;;;;;;5046678;28;19921;-68
2023/03/03 00:08:41;;;;;;;;;;;1.10;99.90;;;;;;5043674;28;19952;-68
2023/03/03 00:11:11;;;;;;;;;;;1.10;99.90;;;;;;5042880;28;19928;-68
2023/03/03 00:13:41;;;;;;;;;;;1.00;99.90;;;;;;5043901;28;19921;-68
2023/03/03 00:16:12;;;;;;;;;;;0.90;99.90;;;;;;5042949;28;19988;-68
2023/03/03 00:18:41;;;;;;;;;;;0.90;99.90;;;;;;5043530;28;19993;-68
2023/03/03 00:21:15;;;;;;;;;;;0.90;99.90;;;;;;5043691;28;19928;-68
2023/03/03 00:23:44;;;;;;;;;;;0.80;99.90;;;;;;5043469;28;19952;-68
2023/03/03 00:26:18;;;;;;;;;;;1.00;99.90;;;;;;5042861;28;20164;-68
2023/03/03 00:28:46;;;;;;;;;;;1.60;99.90;;;;;;5043783;28;19944;-68
2023/03/03 00:31:16;;;;;;;;;;;0.90;99.90;;;;;;5043448;28;19978;-67
2023/03/03 00:33:45;;;;;;;;;;;0.80;99.90;;;;;;5069125;22;19932;-68
2023/03/03 00:36:30;;;;;;;;;;;0.70;99.90;;;;;;5038039;28;20271;-68
2023/03/03 00:39:00;;;;;;;;;;;0.70;99.90;;;;;;5043628;28;20007;-70
2023/03/03 00:41:27;;;;;;;;;;;0.60;99.90;;;;;;5044001;28;20093;-70
2023/03/03 00:43:54;;;;;;;;;;;0.60;99.90;;;;;;5043680;28;19921;-71
2023/03/03 00:46:22;;;;;;;;;;;0.50;99.90;;;;;;5043104;28;19921;-69
2023/03/03 00:48:50;;;;;;;;;;;0.50;99.90;;;;;;5043759;28;19984;-70
2023/03/03 00:51:26;;;;;;;;;;;0.50;99.90;;;;;;5043652;28;19941;-68
2023/03/03 00:53:53;;;;;;;;;;;0.50;99.90;;;;;;5043637;28;19927;-68
2023/03/03 00:56:21;;;;;;;;;;;0.50;99.90;;;;;;5043046;28;19921;-68
2023/03/03 00:58:48;;;;;;;;;;;0.50;99.90;;;;;;5043691;28;19921;-68
2023/03/03 01:01:15;;;;;;;;;;;0.50;99.90;;;;;;5043365;28;19996;-70
2023/03/03 01:03:42;;;;;;;;;;;0.40;99.90;;;;;;5043252;28;19992;-68
2023/03/03 01:06:10;;;;;;;;;;;0.40;99.90;;;;;;5042996;28;19987;-69
2023/03/03 01:08:36;;;;;;;;;;;0.50;99.90;;;;;;5046226;28;19945;-70
2023/03/03 01:11:07;;;;;;;;;;;0.50;99.90;;;;;;5047019;28;19988;-71
2023/03/03 01:13:36;;;;;;;;;;;0.50;99.90;;;;;;5046973;28;19927;-68
2023/03/03 01:16:03;;;;;;;;;;;0.40;99.90;;;;;;5047143;28;19956;-69
2023/03/03 01:18:30;;;;;;;;;;;0.40;99.90;;;;;;5046851;28;19921;-70
2023/03/03 01:20:56;;;;;;;;;;;0.40;99.90;;;;;;5046962;28;19928;-70
2023/03/03 01:23:23;;;;;;;;;;;0.30;99.90;;;;;;5047103;28;19921;-70
2023/03/03 01:25:50;;;;;;;;;;;0.30;99.90;;;;;;5046694;28;19921;-70
2023/03/03 01:28:16;;;;;;;;;;;0.20;99.90;;;;;;5046732;28;19953;-70
2023/03/03 01:30:44;;;;;;;;;;;0.30;99.90;;;;;;5046826;28;19921;-70
2023/03/03 01:33:11;;;;;;;;;;;0.20;99.90;;;;;;5046632;28;19928;-70
2023/03/03 01:35:39;;;;;;;;;;;0.10;99.90;;;;;;5046329;28;20007;-70
2023/03/03 01:38:06;;;;;;;;;;;0.10;99.90;;;;;;5046084;28;19988;-70
2023/03/03 01:40:33;;;;;;;;;;;0.00;99.90;;;;;;5046514;28;20204;-69
2023/03/03 01:43:00;;;;;;;;;;;0.00;99.90;;;;;;5046442;28;19957;-70
2023/03/03 01:45:27;;;;;;;;;;;-0.10;99.90;;;;;;5046679;28;20167;-70
2023/03/03 01:47:58;;;;;;;;;;;-0.10;99.90;;;;;;5046469;28;19921;-68
2023/03/03 01:50:30;;;;;;;;;;;-0.10;99.90;;;;;;5046431;28;19928;-70
2023/03/03 01:52:58;;;;;;;;;;;-0.10;99.90;;;;;;5046128;28;19927;-70
2023/03/03 01:55:26;;;;;;;;;;;-0.10;99.90;;;;;;5046263;28;19956;-70
2023/03/03 01:57:59;;;;;;;;;;;-0.10;99.90;;;;;;5046063;28;19992;-70
2023/03/03 02:00:26;;;;;;;;;;;0.00;99.90;;;;;;5046501;28;20223;-70
2023/03/03 02:02:53;;;;;;;;;;;0.00;99.90;;;;;;5046393;28;19921;-70
2023/03/03 02:05:22;;;;;;;;;;;-0.10;99.90;;;;;;5046110;28;19927;-70
2023/03/03 02:07:48;;;;;;;;;;;-0.10;99.90;;;;;;5046116;28;19921;-70
2023/03/03 02:10:16;;;;;;;;;;;-0.20;99.90;;;;;;5046367;28;19984;-70
2023/03/03 02:12:50;;;;;;;;;;;-0.20;99.90;;;;;;5046026;28;19989;-70
2023/03/03 02:15:21;;;;;;;;;;;-0.30;99.90;;;;;;5046127;28;19963;-69
2023/03/03 02:17:48;;;;;;;;;;;-0.30;99.90;;;;;;5045698;28;19927;-70
2023/03/03 02:20:18;;;;;;;;;;;-0.30;99.90;;;;;;5044830;28;19989;-70
2023/03/03 02:22:50;;;;;;;;;;;-0.40;99.90;;;;;;5046434;28;20147;-70
2023/03/03 02:25:22;;;;;;;;;;;-0.40;99.90;;;;;;5045937;28;20276;-70
2023/03/03 02:27:50;;;;;;;;;;;-0.40;99.90;;;;;;5045965;28;19921;-70
2023/03/03 02:30:18;;;;;;;;;;;-0.50;99.90;;;;;;5046086;28;20163;-70
2023/03/03 02:32:45;;;;;;;;;;;-0.50;99.90;;;;;;5045977;28;19964;-68
2023/03/03 02:35:28;;;;;;;;;;;-0.40;99.90;;;;;;5045414;28;20176;-68
2023/03/03 02:37:58;;;;;;;;;;;-0.40;99.90;;;;;;5045129;28;19920;-71
2023/03/03 02:40:26;;;;;;;;;;;-0.40;99.90;;;;;;5045378;28;19928;-70
2023/03/03 02:42:55;;;;;;;;;;;-0.40;99.90;;;;;;5045305;28;19921;-70
2023/03/03 02:45:21;;;;;;;;;;;-0.40;99.90;;;;;;5045248;28;19972;-73
2023/03/03 02:47:49;;;;;;;;;;;-0.40;99.90;;;;;;5045282;28;19927;-68
2023/03/03 02:50:15;;;;;;;;;;;-0.40;99.90;;;;;;5045786;28;19921;-68
2023/03/03 02:52:42;;;;;;;;;;;-0.40;99.90;;;;;;5045478;28;19921;-68
2023/03/03 02:55:09;;;;;;;;;;;-0.50;99.90;;;;;;5045193;28;19935;-67
2023/03/03 02:57:36;;;;;;;;;;;-0.50;99.90;;;;;;5045015;28;19928;-68
2023/03/03 03:00:04;;;;;;;;;;;-0.50;99.90;;;;;;5045453;28;19992;-67
2023/03/03 03:02:31;;;;;;;;;;;-0.50;99.90;;;;;;5045084;28;20135;-68
2023/03/03 03:04:57;;;;;;;;;;;-0.60;99.90;;;;;;5044810;28;19996;-70
2023/03/03 03:07:24;;;;;;;;;;;-0.60;99.90;;;;;;5045033;28;19952;-70
2023/03/03 03:09:51;;;;;;;;;;;-0.60;99.90;;;;;;5044898;28;19988;-70
2023/03/03 03:12:20;;;;;;;;;;;-0.60;99.90;;;;;;5044506;28;20007;-70
2023/03/03 03:14:46;;;;;;;;;;;-0.60;99.90;;;;;;5045009;28;19925;-71
2023/03/03 03:17:14;;;;;;;;;;;-0.60;99.90;;;;;;5044645;28;19984;-70
2023/03/03 03:19:41;;;;;;;;;;;-0.60;99.90;;;;;;5045107;28;19921;-71
2023/03/03 03:22:08;;;;;;;;;;;-0.60;99.90;;;;;;5044628;28;19927;-70
2023/03/03 03:24:34;;;;;;;;;;;-0.60;99.90;;;;;;5044817;28;19988;-70
2023/03/03 03:27:01;;;;;;;;;;;-0.60;99.90;;;;;;5044661;28;19963;-70
2023/03/03 03:29:27;;;;;;;;;;;-0.70;99.90;;;;;;5044509;28;19988;-70
2023/03/03 03:31:54;;;;;;;;;;;-0.70;99.90;;;;;;5044420;28;19988;-68
2023/03/03 03:34:22;;;;;;;;;;;-0.70;99.90;;;;;;5044177;28;19984;-68
2023/03/03 03:36:49;;;;;;;;;;;-0.70;99.90;;;;;;5044108;28;19921;-68
2023/03/03 03:39:15;;;;;;;;;;;-0.70;99.90;;;;;;5044744;28;19921;-68
2023/03/03 03:41:42;;;;;;;;;;;-0.80;99.90;;;;;;5044507;28;19921;-68
2023/03/03 03:44:08;;;;;;;;;;;-0.80;99.90;;;;;;5044263;28;20012;-68
2023/03/03 03:46:35;;;;;;;;;;;-0.80;99.90;;;;;;5043886;28;19927;-70
2023/03/03 03:49:02;;;;;;;;;;;-0.80;99.90;;;;;;5044486;28;20011;-70
2023/03/03 03:51:30;;;;;;;;;;;-0.90;99.90;;;;;;5044521;28;20169;-68
2023/03/03 03:53:57;;;;;;;;;;;-0.80;99.90;;;;;;5044441;28;20136;-68
2023/03/03 03:56:23;;;;;;;;;;;-0.90;99.90;;;;;;5044105;28;19988;-71
2023/03/03 03:58:50;;;;;;;;;;;-0.90;99.90;;;;;;5044319;28;19996;-70
2023/03/03 04:01:16;;;;;;;;;;;-0.90;99.90;;;;;;5043898;28;19927;-69
2023/03/03 04:03:43;;;;;;;;;;;-1.00;99.90;;;;;;5043982;28;19984;-70
2023/03/03 04:06:09;;;;;;;;;;;-1.00;99.90;;;;;;5043557;28;19988;-71
2023/03/03 04:08:37;;;;;;;;;;;-1.00;99.90;;;;;;5043809;28;19948;-70
2023/03/03 04:11:04;;;;;;;;;;;-1.00;99.90;;;;;;5044014;28;19987;-70
2023/03/03 04:13:33;;;;;;;;;;;-1.00;99.90;;;;;;5043574;28;19921;-69
2023/03/03 04:16:00;;;;;;;;;;;-1.10;99.90;;;;;;5043818;28;19921;-70
2023/03/03 04:18:27;;;;;;;;;;;-1.00;99.90;;;;;;5043764;28;19944;-71
2023/03/03 04:20:54;;;;;;;;;;;-1.10;99.90;;;;;;5044036;28;20172;-70
2023/03/03 04:23:21;;;;;;;;;;;-1.10;99.90;;;;;;5043576;28;19984;-70
2023/03/03 04:25:49;;;;;;;;;;;-1.00;99.90;;;;;;5043492;28;19927;-70
2023/03/03 04:28:16;;;;;;;;;;;-1.10;99.90;;;;;;5043570;28;20259;-70
2023/03/03 04:30:43;;;;;;;;;;;-1.10;99.90;;;;;;5043764;28;20208;-70
2023/03/03 04:33:10;;;;;;;;;;;-1.10;99.90;;;;;;5043592;28;20112;-70
2023/03/03 04:35:36;;;;;;;;;;;-1.20;99.90;;;;;;5043518;28;19921;-70
2023/03/03 04:38:03;;;;;;;;;;;-1.20;99.90;;;;;;5043656;28;20159;-70
2023/03/03 04:40:30;;;;;;;;;;;-1.20;99.90;;;;;;5043849;28;19921;-70
2023/03/03 04:43:05;;;;;;;;;;;-1.20;99.90;;;;;;5045239;28;19967;-71
2023/03/03 04:45:33;;;;;;;;;;;-1.30;99.90;;;;;;5038143;28;19989;-71
2023/03/03 04:48:00;;;;;;;;;;;-1.30;99.90;;;;;;5044947;28;19943;-70
2023/03/03 04:50:27;;;;;;;;;;;-1.30;99.90;;;;;;5047506;28;19952;-70
2023/03/03 04:52:53;;;;;;;;;;;-1.30;99.90;;;;;;5047606;28;19921;-68
2023/03/03 04:55:21;;;;;;;;;;;-1.30;99.90;;;;;;5045112;28;19964;-70
2023/03/03 04:57:47;;;;;;;;;;;-1.30;99.90;;;;;;5046944;28;19992;-70
2023/03/03 05:00:14;;;;;;;;;;;-1.30;99.90;;;;;;5047523;28;20227;-70
2023/03/03 05:02:42;;;;;;;;;;;-1.30;99.90;;;;;;5047698;28;20044;-67
2023/03/03 05:05:10;;;;;;;;;;;-1.30;99.90;;;;;;5046791;28;19985;-70
2023/03/03 05:07:36;;;;;;;;;;;-1.30;99.90;;;;;;5046582;28;19921;-70
2023/03/03 05:10:03;;;;;;;;;;;-1.30;99.90;;;;;;5047291;28;19921;-70
2023/03/03 05:12:30;;;;;;;;;;;-1.30;99.90;;;;;;5047377;28;19921;-71
2023/03/03 05:14:56;;;;;;;;;;;-1.30;99.90;;;;;;5047039;28;19921;-70
2023/03/03 05:17:23;;;;;;;;;;;-1.30;99.90;;;;;;5046774;28;19989;-70
2023/03/03 05:19:51;;;;;;;;;;;-1.30;99.90;;;;;;5047226;28;20224;-70
2023/03/03 05:22:17;;;;;;;;;;;-1.40;99.90;;;;;;5047044;28;19927;-70
2023/03/03 05:24:47;;;;;;;;;;;-1.40;99.90;;;;;;5046789;28;20010;-71
2023/03/03 05:27:14;;;;;;;;;;;-1.40;99.90;;;;;;5046180;28;19940;-70
2023/03/03 05:29:41;;;;;;;;;;;-1.40;99.90;;;;;;5047188;28;20172;-70
2023/03/03 05:32:07;;;;;;;;;;;-1.50;99.90;;;;;;5047015;28;19952;-70
2023/03/03 05:34:34;;;;;;;;;;;-1.50;99.90;;;;;;5046803;28;19952;-70
2023/03/03 05:37:05;;;;;;;;;;;-1.50;99.90;;;;;;5046637;28;20284;-70
2023/03/03 05:39:32;;;;;;;;;;;-1.60;99.90;;;;;;5046858;28;19959;-70
2023/03/03 05:41:59;;;;;;;;;;;-1.60;99.90;;;;;;5046625;28;19921;-70
2023/03/03 05:44:25;;;;;;;;;;;-1.60;99.90;;;;;;5046392;28;19929;-70
2023/03/03 05:46:52;;;;;;;;;;;-1.60;99.90;;;;;;5045081;28;19925;-69
2023/03/03 05:49:19;;;;;;;;;;;-1.60;99.90;;;;;;5045652;28;20270;-70
2023/03/03 05:51:46;;;;;;;;;;;-1.60;99.90;;;;;;5046558;28;19921;-70
2023/03/03 05:54:14;;;;;;;;;;;-1.60;99.90;;;;;;5043327;28;20184;-70
2023/03/03 05:56:40;;;;;;;;;;;-1.60;99.90;;;;;;5045360;28;19955;-69
2023/03/03 05:59:07;;;;;;;;;;;-0.50;99.90;;;;;;5046634;28;19953;-69
2023/03/03 06:01:47;;;;;;;;;;;-1.60;99.90;;;;;;5047419;28;19959;-70
2023/03/03 06:04:14;;;;;;;;;;;-1.60;99.90;;;;;;5046697;28;19922;-70
2023/03/03 06:06:50;;;;;;;;;;;-1.60;99.90;;;;;;5045657;28;19984;-70
2023/03/03 06:09:25;;;;;;;;;;;-1.60;99.90;;;;;;5046067;28;19928;-70
2023/03/03 06:11:52;;;;;;;;;;;-1.60;99.90;;;;;;5046110;28;19920;-70
2023/03/03 06:14:19;;;;;;;;;;;-0.80;99.90;;;;;;5045963;28;19992;-70
2023/03/03 06:16:46;;;;;;;;;;;-1.70;99.90;;;;;;5045293;28;19921;-69
2023/03/03 06:19:13;;;;;;;;;;;-1.60;99.90;;;;;;5046098;28;19984;-69
2023/03/03 06:21:40;;;;;;;;;;;-1.60;99.90;;;;;;5046379;28;19988;-69
2023/03/03 06:24:07;;;;;;;;;;;-1.50;99.90;;;;;;5046042;28;19947;-69
2023/03/03 06:26:35;;;;;;;;;;;-1.60;99.90;;;;;;5044750;28;20232;-70
2023/03/03 06:29:26;;;;;;;;;;;-1.60;99.90;;;;;;5046512;28;20223;-70
2023/03/03 06:31:53;;;;;;;;;;;-1.50;99.90;;;;;;5046439;28;19940;-70
2023/03/03 06:34:19;;;;;;;;;;;-1.50;99.90;;;;;;5045409;28;19980;-70
2023/03/03 06:36:46;;;;;;;;;;;-1.50;99.90;;;;;;5043318;28;20212;-70
2023/03/03 06:39:13;;;;;;;;;;;-1.50;99.90;;;;;;5045022;28;19921;-69
2023/03/03 06:41:41;;;;;;;;;;;-1.50;99.90;;;;;;5045461;28;19944;-70
2023/03/03 06:44:08;;;;;;;;;;;-1.50;99.90;;;;;;5045098;28;19928;-70
2023/03/03 06:46:34;;;;;;;;;;;-1.50;99.90;;;;;;5044864;28;19921;-70
2023/03/03 06:49:02;;;;;;;;;;;-1.40;99.90;;;;;;5045325;28;19985;-70
2023/03/03 06:51:32;;;;;;;;;;;-1.40;99.90;;;;;;5045798;28;19921;-71
2023/03/03 06:54:19;;;;;;;;;;;-1.40;99.90;;;;;;5045360;28;20160;-70
2023/03/03 06:56:58;;;;;;;;;;;-1.40;99.90;;;;;;5044130;28;19928;-69
2023/03/03 06:59:27;;;;;;;;;;;-1.40;99.90;;;;;;5045783;28;20117;-68
2023/03/03 07:01:53;;;;;;;;;;;-1.40;99.90;;;;;;5046321;28;19922;-70
2023/03/03 07:04:27;;;;;;;;;;;-1.40;99.90;;;;;;5045031;28;19989;-70
2023/03/03 07:06:58;;;;;;;;;;;-1.40;99.90;;;;;;5045035;28;19921;-70
2023/03/03 07:09:44;;;;;;;;;;;-1.50;99.90;;;;;;5045105;28;19945;-70
2023/03/03 07:12:13;;;;;;;;;;;-1.50;99.90;;;;;;5045073;28;19927;-70
2023/03/03 07:14:54;;;;;;;;;;;-1.50;99.90;;;;;;5045177;28;19996;-70
2023/03/03 07:17:23;;;;;;;;;;;-1.40;99.90;;;;;;5044181;28;20117;-70
2023/03/03 07:19:50;;;;;;;;;;;-1.40;99.90;;;;;;5044963;28;19928;-71
2023/03/03 07:22:17;;;;;;;;;;;-1.40;99.90;;;;;;5045376;28;19929;-70
2023/03/03 07:24:45;;;;;;;;;;;-1.40;99.90;;;;;;5045258;28;19925;-70
2023/03/03 07:27:24;;;;;;;;;;;-1.40;99.90;;;;;;5044696;28;19975;-71
2023/03/03 07:29:51;;;;;;;;;;;-1.30;99.90;;;;;;5044969;28;20113;-70
2023/03/03 07:32:24;;;;;;;;;;;-1.30;99.90;;;;;;5045716;28;19925;-70
2023/03/03 07:34:57;;;;;;;;;;;-1.30;99.90;;;;;;5046757;28;19964;-70
2023/03/03 07:37:29;;;;;;;;;;;-1.20;99.90;;;;;;5025031;28;19936;-70
2023/03/03 07:40:06;;;;;;;;;;;-1.20;99.90;;;;;;5046110;28;19921;-71
2023/03/03 07:42:38;;;;;;;;;;;-1.20;99.90;;;;;;5044359;28;19921;-70
2023/03/03 07:45:20;;;;;;;;;;;-1.10;99.90;;;;;;5044367;28;19941;-70
2023/03/03 07:47:46;;;;;;;;;;;-1.10;99.90;;;;;;5044163;28;19952;-70
2023/03/03 07:50:15;;;;;;;;;;;-1.00;99.90;;;;;;5046293;28;19921;-70
2023/03/03 07:52:43;;;;;;;;;;;-1.00;99.90;;;;;;5044668;28;19925;-70
2023/03/03 07:55:47;;;;;;;;;;;-0.20;99.90;;;;;;5044687;28;19967;-71
2023/03/03 07:58:20;;;;;;;;;;;-1.00;99.90;;;;;;5044839;28;20148;-70
2023/03/03 08:01:11;;;;;;;;;;;-0.90;99.90;;;;;;5042485;28;19960;-70
2023/03/03 08:03:37;;;;;;;;;;;-0.80;99.90;;;;;;5043385;28;19921;-69
2023/03/03 08:06:10;;;;;;;;;;;-0.80;99.90;;;;;;5043646;28;19949;-69
2023/03/03 08:08:36;;;;;;;;;;;-0.70;99.90;;;;;;5044293;28;19921;-69
2023/03/03 08:11:16;;;;;;;;;;;-0.60;99.90;;;;;;5044263;28;20089;-70
2023/03/03 08:13:45;;;;;;;;;;;-0.50;99.90;;;;;;5044121;28;19964;-69
2023/03/03 08:16:25;;;;;;;;;;;-0.50;99.90;;;;;;5042749;28;20176;-69
2023/03/03 08:18:53;;;;;;;;;;;-0.40;99.90;;;;;;5043927;28;19961;-70
2023/03/03 08:21:20;;;;;;;;;;;-0.30;99.90;;;;;;5044481;28;19928;-70
2023/03/03 08:23:48;;;;;;;;;;;-0.20;99.90;;;;;;5043761;28;19974;-70
2023/03/03 08:26:15;;;;;;;;;;;-0.20;99.90;;;;;;5043110;28;19925;-68
2023/03/03 08:28:42;;;;;;;;;;;-0.10;99.90;;;;;;5043620;28;19925;-67
2023/03/03 08:31:11;;;;;;;;;;;0.00;99.90;;;;;;5043782;28;19921;-67
2023/03/03 08:33:37;;;;;;;;;;;0.10;99.90;;;;;;5043479;28;19928;-69
2023/03/03 08:36:04;;;;;;;;;;;0.30;99.90;;;;;;5043308;28;19921;-69
2023/03/03 08:38:31;;;;;;;;;;;0.30;99.90;;;;;;5043293;28;20175;-69
2023/03/03 08:40:58;;;;;;;;;;;0.40;99.90;;;;;;5043752;28;19964;-69
2023/03/03 08:43:24;;;;;;;;;;;0.50;99.90;;;;;;5043240;28;19984;-69
2023/03/03 08:45:52;;;;;;;;;;;0.60;99.90;;;;;;5042982;28;19980;-69
2023/03/03 08:48:20;;;;;;;;;;;0.70;99.90;;;;;;5043331;28;19971;-69
2023/03/03 08:50:47;;;;;;;;;;;0.90;99.90;;;;;;5043778;28;19921;-67
2023/03/03 08:53:25;;;;;;;;;;;1.00;99.90;;;;;;5044602;28;20151;-67
2023/03/03 08:55:53;;;;;;;;;;;1.20;99.90;;;;;;5043744;28;19921;-69
2023/03/03 08:58:21;;;;;;;;;;;1.30;99.90;;;;;;5043169;28;19944;-69
2023/03/03 09:00:47;;;;;;;;;;;1.40;99.90;;;;;;5045145;28;19928;-69
2023/03/03 09:03:14;;;;;;;;;;;1.50;99.90;;;;;;5043953;28;19983;-68
2023/03/03 09:06:16;;;;;;;;;;;1.60;99.90;;;;;;5043409;28;19921;-68
2023/03/03 09:08:46;;;;;;;;;;;1.80;99.90;;;;;;5044495;28;19925;-67
2023/03/03 09:11:23;;;;;;;;;;;2.00;99.90;;;;;;5044453;28;19941;-70
2023/03/03 09:13:52;;;;;;;;;;;2.10;99.90;;;;;;5043207;28;19952;-68
2023/03/03 09:16:19;;;;;;;;;;;2.30;99.90;;;;;;5042439;28;20401;-67
2023/03/03 09:18:46;;;;;;;;;;;2.40;99.90;;;;;;5043375;28;19968;-67
2023/03/03 09:21:18;;;;;;;;;;;2.60;99.90;;;;;;5043082;28;20228;-67
2023/03/03 09:23:49;;;;;;;;;;;2.70;99.90;;;;;;5043107;28;20223;-68
2023/03/03 09:26:25;;;;;;;;;;;2.70;99.90;;;;;;5042604;28;19984;-67
2023/03/03 09:28:52;;;;;;;;;;;2.70;99.90;;;;;;5025489;28;20128;-66
2023/03/03 09:31:24;;;;;;;;;;;2.80;99.90;;;;;;5027091;28;19927;-67
2023/03/03 09:33:53;;;;;;;;;;;2.80;99.90;;;;;;5026982;28;20008;-68
2023/03/03 09:36:23;;;;;;;;;;;2.80;99.90;;;;;;5026223;28;20117;-67
2023/03/03 09:38:51;;;;;;;;;;;2.80;99.90;;;;;;5027156;28;19921;-68
2023/03/03 09:41:36;;;;;;;;;;;2.90;99.90;;;;;;5026846;28;19964;-68
2023/03/03 09:44:27;;;;;;;;;;;3.00;99.90;;;;;;5026972;28;19984;-67
2023/03/03 09:47:03;;;;;;;;;;;3.10;99.90;;;;;;5015744;28;19994;-68
2023/03/03 09:49:32;;;;;;;;;;;3.10;99.90;;;;;;5026728;28;20116;-68
2023/03/03 09:52:17;;;;;;;;;;;3.10;99.90;;;;;;5026757;28;20255;-67
2023/03/03 09:54:52;;;;;;;;;;;3.20;99.90;;;;;;5026898;28;19967;-68
2023/03/03 09:57:22;;;;;;;;;;;3.40;99.90;;;;;;5030320;28;19925;-67
2023/03/03 10:00:03;;;;;;;;;;;3.40;99.90;;;;;;5046750;28;20171;-67
2023/03/03 10:02:37;;;;;;;;;;;3.50;99.90;;;;;;5046695;28;19921;-68
2023/03/03 10:05:19;;;;;;;;;;;3.60;99.90;;;;;;5046136;28;19952;-67
2023/03/03 10:07:53;;;;;;;;;;;3.70;99.90;;;;;;5026041;28;19921;-67
2023/03/03 10:10:27;;;;;;;;;;;3.80;99.90;;;;;;5026415;28;19988;-67
2023/03/03 10:13:03;;;;;;;;;;;3.90;99.90;;;;;;5026636;28;20112;-67
2023/03/03 10:15:34;;;;;;;;;;;4.20;99.90;;;;;;5026233;28;19967;-68
2023/03/03 10:18:09;;;;;;;;;;;4.10;99.90;;;;;;5023079;28;19999;-67
2023/03/03 10:20:46;;;;;;;;;;;4.20;99.90;;;;;;5026280;28;19959;-67
2023/03/03 10:23:19;;;;;;;;;;;4.40;99.90;;;;;;5026635;28;19927;-67
2023/03/03 10:25:52;;;;;;;;;;;4.50;99.90;;;;;;5026290;28;19921;-68
2023/03/03 10:28:34;;;;;;;;;;;4.60;99.90;;;;;;5026183;28;20000;-68
2023/03/03 10:31:08;;;;;;;;;;;4.70;99.90;;;;;;5023488;28;19921;-67
2023/03/03 10:33:39;;;;;;;;;;;4.80;99.90;;;;;;5025712;28;20201;-67
2023/03/03 10:36:26;;;;;;;;;;;4.90;99.90;;;;;;5028868;28;19921;-67
2023/03/03 10:38:59;;;;;;;;;;;4.90;99.90;;;;;;5045389;28;19945;-67
2023/03/03 10:41:40;;;;;;;;;;;5.10;99.90;;;;;;5044689;28;19987;-67
2023/03/03 10:44:24;;;;;;;;;;;5.30;99.90;;;;;;5045514;28;19927;-69
2023/03/03 10:47:05;;;;;;;;;;;5.40;99.90;;;;;;5044165;28;19921;-69
2023/03/03 10:49:38;;;;;;;;;;;5.60;99.90;;;;;;5045507;28;19921;-69
2023/03/03 10:52:13;;;;;;;;;;;5.70;99.90;;;;;;5045484;28;19921;-68
2023/03/03 10:54:56;;;;;;;;;;;5.80;99.90;;;;;;5046015;28;20053;-69
2023/03/03 10:57:30;;;;;;;;;;;6.00;99.90;;;;;;5043267;28;19965;-69
2023/03/03 11:00:11;;;;;;;;;;;6.10;99.90;;;;;;5045460;28;20327;-70
2023/03/03 11:02:53;;;;;;;;;;;6.30;99.90;;;;;;5043433;28;20386;-70
2023/03/03 11:05:27;;;;;;;;;;;7.00;99.90;;;;;;5044804;28;19963;-66
2023/03/03 11:07:56;;;;;;;;;;;6.40;99.90;;;;;;5044354;28;19921;-66
2023/03/03 11:10:35;;;;;;;;;;;6.60;99.90;;;;;;5044996;28;19921;-68
2023/03/03 11:13:10;;;;;;;;;;;6.70;99.90;;;;;;5042055;28;19952;-68
2023/03/03 11:15:42;;;;;;;;;;;6.90;99.90;;;;;;5044752;28;19925;-70
2023/03/03 11:18:15;;;;;;;;;;;7.10;99.90;;;;;;5044560;28;19984;-70
2023/03/03 11:20:46;;;;;;;;;;;7.20;99.90;;;;;;5044876;28;19985;-69
2023/03/03 11:23:25;;;;;;;;;;;7.30;99.90;;;;;;5044793;28;19952;-68
2023/03/03 11:25:55;;;;;;;;;;;7.40;99.90;;;;;;5043864;28;19921;-70
2023/03/03 11:28:28;;;;;;;;;;;7.60;99.90;;;;;;5044257;28;19921;-70
2023/03/03 11:31:02;;;;;;;;;;;7.80;99.90;;;;;;5045293;28;19985;-69
2023/03/03 11:33:35;;;;;;;;;;;7.90;99.90;;;;;;5044014;28;19976;-68
2023/03/03 11:36:09;;;;;;;;;;;8.00;99.90;;;;;;5043212;28;19956;-69
2023/03/03 11:38:53;;;;;;;;;;;8.10;99.90;;;;;;5044186;28;19988;-69
2023/03/03 11:44:35;;;;;;;;;;;8.40;99.90;;;;;;5038315;28;19921;-69
2023/03/03 11:47:21;;;;;;;;;;;8.70;99.90;;;;;;5043001;28;19992;-68
2023/03/03 11:49:50;;;;;;;;;;;8.60;99.90;;;;;;5039110;28;19921;-68
2023/03/03 11:52:22;;;;;;;;;;;8.70;99.90;;;;;;5040703;28;19936;-69
2023/03/03 11:54:52;;;;;;;;;;;8.90;99.90;;;;;;5043518;28;19921;-68
2023/03/03 11:57:20;;;;;;;;;;;10.40;99.90;;;;;;5040531;28;19921;-70
2023/03/03 12:00:03;;;;;;;;;;;9.20;99.90;;;;;;5043775;28;19943;-73
2023/03/03 12:02:53;;;;;;;;;;;9.30;99.90;;;;;;5044044;28;19921;-70
2023/03/03 12:05:27;;;;;;;;;;;9.20;99.90;;;;;;5032163;28;19925;-70
2023/03/03 12:07:59;;;;;;;;;;;9.30;99.90;;;;;;5040798;28;19964;-70
2023/03/03 12:10:28;;;;;;;;;;;9.20;99.90;;;;;;5043391;28;20216;-70
2023/03/03 12:13:01;;;;;;;;;;;9.40;99.90;;;;;;5043390;28;19924;-71
2023/03/03 12:15:33;;;;;;;;;;;9.50;99.90;;;;;;5038284;28;20187;-69
2023/03/03 12:18:11;;;;;;;;;;;9.40;99.90;;;;;;5042639;28;19921;-70
2023/03/03 12:20:43;;;;;;;;;;;9.80;99.90;;;;;;5029547;28;19939;-70
2023/03/03 12:23:14;;;;;;;;;;;9.80;99.90;;;;;;5043760;28;19984;-72
2023/03/03 12:25:42;;;;;;;;;;;10.00;99.90;;;;;;5043681;28;19921;-71
2023/03/03 12:28:11;;;;;;;;;;;9.90;99.90;;;;;;5042708;28;19921;-71
2023/03/03 12:30:58;;;;;;;;;;;10.00;99.90;;;;;;5043895;28;19928;-71
2023/03/03 12:33:30;;;;;;;;;;;10.00;99.90;;;;;;5043699;28;19921;-70
2023/03/03 12:36:02;;;;;;;;;;;10.10;99.90;;;;;;5043072;28;19968;-71
2023/03/03 12:38:35;;;;;;;;;;;10.20;99.90;;;;;;5043716;28;19960;-72
2023/03/03 12:41:07;;;;;;;;;;;10.40;99.90;;;;;;5042318;28;19948;-71
2023/03/03 12:43:42;;;;;;;;;;;10.70;99.90;;;;;;5035912;28;20231;-71
2023/03/03 12:46:14;;;;;;;;;;;10.80;99.90;;;;;;5042939;28;19984;-72
2023/03/03 12:48:41;;;;;;;;;;;11.00;99.90;;;;;;5043359;28;19960;-70
2023/03/03 12:51:13;;;;;;;;;;;11.10;99.90;;;;;;5033276;28;19921;-70
2023/03/03 12:53:57;;;;;;;;;;;11.10;99.90;;;;;;5023649;28;19922;-70
2023/03/03 12:56:26;;;;;;;;;;;11.10;99.90;;;;;;5015956;28;19921;-69
2023/03/03 12:58:55;;;;;;;;;;;11.00;99.90;;;;;;5042117;28;19921;-71
2023/03/03 13:01:37;;;;;;;;;;;11.00;99.90;;;;;;5043410;28;19944;-71
2023/03/03 13:04:08;;;;;;;;;;;11.20;99.90;;;;;;5042857;28;19980;-71
2023/03/03 13:06:37;;;;;;;;;;;11.30;99.90;;;;;;5045809;28;19920;-71
2023/03/03 13:09:22;;;;;;;;;;;11.40;99.90;;;;;;5047041;28;20000;-69
2023/03/03 13:11:54;;;;;;;;;;;11.50;99.90;;;;;;5047432;28;20001;-71
2023/03/03 13:14:25;;;;;;;;;;;11.70;99.90;;;;;;5046869;28;19922;-71
2023/03/03 13:16:58;;;;;;;;;;;11.70;99.90;;;;;;5046540;28;19929;-71
2023/03/03 13:19:28;;;;;;;;;;;11.60;99.90;;;;;;5047418;28;19925;-70
2023/03/03 13:21:57;;;;;;;;;;;11.60;99.90;;;;;;5048152;28;19921;-70
2023/03/03 13:24:27;;;;;;;;;;;11.50;99.90;;;;;;5052712;28;19977;-70
2023/03/03 13:26:55;;;;;;;;;;;11.40;99.90;;;;;;5053019;28;19921;-70
2023/03/03 13:29:24;;;;;;;;;;;11.40;99.90;;;;;;5054611;28;19983;-70
2023/03/03 13:31:53;;;;;;;;;;;11.40;99.90;;;;;;5051846;28;19985;-70
2023/03/03 13:34:30;;;;;;;;;;;11.70;99.90;;;;;;5049340;28;19980;-72
2023/03/03 13:37:01;;;;;;;;;;;11.90;99.90;;;;;;5047142;28;19925;-69
2023/03/03 13:39:30;;;;;;;;;;;12.10;99.90;;;;;;5047171;28;20420;-70
2023/03/03 13:42:01;;;;;;;;;;;12.20;99.90;;;;;;5046613;28;19925;-71
2023/03/03 13:44:30;;;;;;;;;;;12.10;99.90;;;;;;5046932;28;20216;-70
2023/03/03 13:47:02;;;;;;;;;;;12.10;99.90;;;;;;5045939;28;20019;-69
2023/03/03 13:49:38;;;;;;;;;;;12.20;99.90;;;;;;5046631;28;19967;-69
2023/03/03 13:52:08;;;;;;;;;;;12.10;99.90;;;;;;5047188;28;19921;-71
2023/03/03 13:54:43;;;;;;;;;;;12.30;99.90;;;;;;5046321;28;19956;-69
2023/03/03 13:57:17;;;;;;;;;;;12.30;99.90;;;;;;5045447;28;19921;-69
2023/03/03 13:59:49;;;;;;;;;;;12.30;99.90;;;;;;5046312;28;20208;-70
2023/03/03 14:02:24;;;;;;;;;;;12.30;99.90;;;;;;5045363;28;19921;-70
2023/03/03 14:04:53;;;;;;;;;;;12.40;99.90;;;;;;5029279;28;19921;-71
2023/03/03 14:07:22;;;;;;;;;;;12.60;99.90;;;;;;5045396;28;19928;-70
2023/03/03 14:09:57;;;;;;;;;;;12.80;99.90;;;;;;5045471;28;19921;-70
2023/03/03 14:12:27;;;;;;;;;;;12.90;99.90;;;;;;5046596;28;19921;-70
2023/03/03 14:14:59;;;;;;;;;;;13.10;99.90;;;;;;5044353;28;19928;-70
2023/03/03 14:17:29;;;;;;;;;;;12.70;99.90;;;;;;5043180;28;19968;-70
2023/03/03 14:20:00;;;;;;;;;;;12.80;99.90;;;;;;5033892;28;20127;-69
2023/03/03 14:22:33;;;;;;;;;;;12.90;99.90;;;;;;5035124;28;19929;-68
2023/03/03 14:25:01;;;;;;;;;;;13.10;99.90;;;;;;5045367;28;20304;-69
2023/03/03 14:27:33;;;;;;;;;;;13.10;99.90;;;;;;5044978;28;19927;-70
2023/03/03 14:30:07;;;;;;;;;;;13.00;99.90;;;;;;5045389;28;19921;-70
2023/03/03 14:32:39;;;;;;;;;;;13.10;99.90;;;;;;5039904;28;19951;-70
2023/03/03 14:35:14;;;;;;;;;;;13.30;99.90;;;;;;5042256;28;19980;-70
2023/03/03 14:37:44;;;;;;;;;;;13.40;99.90;;;;;;5043761;28;19929;-70
2023/03/03 14:40:19;;;;;;;;;;;13.20;99.90;;;;;;5045180;28;19925;-70
2023/03/03 14:42:48;;;;;;;;;;;13.20;99.90;;;;;;5045703;28;19922;-70
2023/03/03 14:45:28;;;;;;;;;;;13.20;99.90;;;;;;5045408;28;19935;-70